createdAt,value
2022-11-30T00:01:40.881Z,24.33
2022-11-30T00:04:10.017Z,24.47
2022-11-30T00:06:42.601Z,25.80
2022-11-30T00:09:13.309Z,27.00
2022-11-30T00:11:41.926Z,27.00
2022-11-30T00:14:10.493Z,26.87
2022-11-30T00:16:39.075Z,25.23
2022-11-30T00:19:07.609Z,25.40
2022-11-30T00:21:36.182Z,26.63
2022-11-30T00:24:07.111Z,27.77
2022-11-30T00:26:37.219Z,27.07
2022-11-30T00:29:05.751Z,25.73
2022-11-30T00:31:34.418Z,26.43
2022-11-30T00:34:03.031Z,27.00
2022-11-30T00:36:32.517Z,25.80
2022-11-30T00:39:01.083Z,26.73
2022-11-30T00:41:29.687Z,27.30
2022-11-30T00:43:59.580Z,26.37
2022-11-30T00:46:28.211Z,26.77
2022-11-30T00:48:56.826Z,26.20
2022-11-30T00:51:25.368Z,26.77
2022-11-30T00:53:53.923Z,27.30
2022-11-30T00:56:24.792Z,27.70
2022-11-30T00:58:53.831Z,28.30
2022-11-30T01:01:23.749Z,26.50
2022-11-30T01:03:52.582Z,27.10
2022-11-30T01:06:21.228Z,27.20
2022-11-30T01:08:49.831Z,29.27
2022-11-30T01:11:23.856Z,26.90
2022-11-30T01:13:53.180Z,25.97
2022-11-30T01:16:26.702Z,27.70
2022-11-30T01:18:55.873Z,26.97
2022-11-30T01:21:26.942Z,25.73
2022-11-30T01:23:56.569Z,26.87
2022-11-30T01:26:25.953Z,25.87
2022-11-30T01:28:56.515Z,26.80
2022-11-30T01:31:26.853Z,26.80
2022-11-30T01:33:57.228Z,26.03
2022-11-30T01:36:27.637Z,26.37
2022-11-30T01:38:58.571Z,24.80
2022-11-30T01:41:29.802Z,25.87
2022-11-30T01:44:19.564Z,25.17
2022-11-30T01:46:56.974Z,25.20
2022-11-30T01:49:31.133Z,25.00
2022-11-30T01:52:05.853Z,25.50
2022-11-30T01:54:40.306Z,25.80
2022-11-30T01:57:16.131Z,25.00
2022-11-30T01:59:45.430Z,25.70
2022-11-30T02:02:15.717Z,23.87
2022-11-30T02:04:44.654Z,24.80
2022-11-30T02:07:14.141Z,26.63
2022-11-30T02:09:46.186Z,25.07
2022-11-30T02:12:35.853Z,26.23
2022-11-30T02:15:12.459Z,24.43
2022-11-30T02:17:54.670Z,25.07
2022-11-30T02:20:51.198Z,25.00
2022-11-30T02:23:59.966Z,24.63
2022-11-30T02:27:05.170Z,25.90
2022-11-30T02:29:40.983Z,26.20
2022-11-30T02:32:17.331Z,25.50
2022-11-30T02:34:49.398Z,25.93
2022-11-30T02:37:19.557Z,26.90
2022-11-30T02:39:48.105Z,26.93
2022-11-30T02:42:17.018Z,25.83
2022-11-30T02:44:50.786Z,25.03
2022-11-30T02:47:32.586Z,27.43
2022-11-30T02:50:05.946Z,25.10
2022-11-30T02:52:36.726Z,25.80
2022-11-30T02:55:08.865Z,25.63
2022-11-30T02:57:38.099Z,26.73
2022-11-30T03:00:12.038Z,27.50
2022-11-30T03:02:41.763Z,27.07
2022-11-30T03:05:11.126Z,26.80
2022-11-30T03:07:40.344Z,26.17
2022-11-30T03:10:11.074Z,26.80
2022-11-30T03:12:39.699Z,25.77
2022-11-30T03:15:10.732Z,25.60
2022-11-30T03:17:39.373Z,26.00
2022-11-30T03:20:10.038Z,26.20
2022-11-30T03:22:38.637Z,25.50
2022-11-30T03:25:08.231Z,26.43
2022-11-30T03:27:37.468Z,25.27
2022-11-30T03:30:07.982Z,24.87
2022-11-30T03:32:38.081Z,24.13
2022-11-30T03:35:07.571Z,24.47
2022-11-30T03:37:36.183Z,24.13
2022-11-30T03:40:05.630Z,24.23
2022-11-30T03:42:34.168Z,23.93
2022-11-30T03:45:02.754Z,25.13
2022-11-30T03:47:31.322Z,24.33
2022-11-30T03:50:01.303Z,24.20
2022-11-30T03:52:29.865Z,22.60
2022-11-30T03:54:58.524Z,23.13
2022-11-30T03:57:27.090Z,23.37
2022-11-30T03:59:55.943Z,23.77
2022-11-30T04:02:24.552Z,22.33
2022-11-30T04:04:53.135Z,22.67
2022-11-30T04:07:23.255Z,22.03
2022-11-30T04:09:51.975Z,21.83
2022-11-30T04:12:20.526Z,22.13
2022-11-30T04:14:49.723Z,22.07
2022-11-30T04:17:18.600Z,21.07
2022-11-30T04:19:47.183Z,21.30
2022-11-30T04:22:15.834Z,20.90
2022-11-30T04:24:46.111Z,20.97
2022-11-30T04:27:15.035Z,21.40
2022-11-30T04:29:43.699Z,21.03
2022-11-30T04:32:12.337Z,21.60
2022-11-30T04:34:41.102Z,20.97
2022-11-30T04:37:09.638Z,21.87
2022-11-30T04:39:38.313Z,21.90
2022-11-30T04:42:08.370Z,20.80
2022-11-30T04:44:37.037Z,20.53
2022-11-30T04:47:05.741Z,19.90
2022-11-30T04:49:34.509Z,20.13
2022-11-30T04:52:03.090Z,19.17
2022-11-30T04:54:31.675Z,19.37
2022-11-30T04:57:00.205Z,21.90
2022-11-30T04:59:30.217Z,21.67
2022-11-30T05:01:59.334Z,20.07
2022-11-30T05:04:28.218Z,22.23
2022-11-30T05:06:56.778Z,21.37
2022-11-30T05:09:25.390Z,21.77
2022-11-30T05:11:53.994Z,19.40
2022-11-30T05:14:22.507Z,19.60
2022-11-30T05:16:52.440Z,20.53
2022-11-30T05:19:21.109Z,20.30
2022-11-30T05:21:49.807Z,18.97
2022-11-30T05:24:18.798Z,20.00
2022-11-30T05:26:47.506Z,19.90
2022-11-30T05:29:16.073Z,19.70
2022-11-30T05:31:44.626Z,20.63
2022-11-30T05:34:14.822Z,20.03
2022-11-30T05:36:43.667Z,18.80
2022-11-30T05:39:12.348Z,18.37
2022-11-30T05:41:40.972Z,19.37
2022-11-30T05:44:10.696Z,19.93
2022-11-30T05:46:41.075Z,20.40
2022-11-30T05:49:10.318Z,20.47
2022-11-30T05:51:42.046Z,19.50
2022-11-30T05:54:10.762Z,20.83
2022-11-30T05:56:39.416Z,20.17
2022-11-30T05:59:07.961Z,18.30
2022-11-30T06:01:36.861Z,18.70
2022-11-30T06:04:08.825Z,19.67
2022-11-30T06:06:39.247Z,19.03
2022-11-30T06:09:07.842Z,18.40
2022-11-30T06:11:36.540Z,19.07
2022-11-30T06:14:05.698Z,18.83
2022-11-30T06:16:34.523Z,17.77
2022-11-30T06:19:03.710Z,18.20
2022-11-30T06:21:32.437Z,18.53
2022-11-30T06:24:02.712Z,18.87
2022-11-30T06:26:31.248Z,18.07
2022-11-30T06:28:59.784Z,17.67
2022-11-30T06:31:28.483Z,17.47
2022-11-30T06:33:58.614Z,16.80
2022-11-30T06:36:30.106Z,16.20
2022-11-30T06:39:04.118Z,17.20
2022-11-30T06:41:32.850Z,16.83
2022-11-30T06:44:01.592Z,16.47
2022-11-30T06:46:30.173Z,16.73
2022-11-30T06:48:58.743Z,16.33
2022-11-30T06:51:27.342Z,15.63
2022-11-30T06:53:55.986Z,15.33
2022-11-30T06:56:26.083Z,15.97
2022-11-30T06:58:54.588Z,14.07
2022-11-30T07:01:23.250Z,15.37
2022-11-30T07:03:51.927Z,15.17
2022-11-30T07:06:20.471Z,15.33
2022-11-30T07:08:49.954Z,16.70
2022-11-30T07:11:18.494Z,17.37
2022-11-30T07:13:48.436Z,18.47
2022-11-30T07:16:17.398Z,18.07
2022-11-30T07:18:45.954Z,16.77
2022-11-30T07:21:14.875Z,16.07
2022-11-30T07:24:01.002Z,15.70
2022-11-30T07:26:29.703Z,16.10
2022-11-30T07:28:59.857Z,16.03
2022-11-30T07:31:31.472Z,15.03
2022-11-30T07:34:06.093Z,14.27
2022-11-30T07:36:35.963Z,15.60
2022-11-30T07:39:05.122Z,15.60
2022-11-30T07:41:33.702Z,15.57
2022-11-30T07:44:06.815Z,15.67
2022-11-30T07:46:36.284Z,15.10
2022-11-30T07:49:05.846Z,12.53
2022-11-30T07:51:35.126Z,12.50
2022-11-30T07:54:04.375Z,11.83
2022-11-30T07:56:33.023Z,13.67
2022-11-30T07:59:04.684Z,13.03
2022-11-30T08:01:35.216Z,14.83
2022-11-30T08:04:04.148Z,14.57
2022-11-30T08:06:33.774Z,15.03
2022-11-30T08:09:05.454Z,15.63
2022-11-30T08:11:37.127Z,15.85
2022-11-30T08:14:07.164Z,15.73
2022-11-30T08:16:38.998Z,14.63
2022-11-30T08:19:07.945Z,15.65
2022-11-30T08:21:38.155Z,15.70
2022-11-30T08:24:07.517Z,15.50
2022-11-30T08:26:36.170Z,14.95
2022-11-30T08:29:06.161Z,15.10
2022-11-30T08:31:38.319Z,14.73
2022-11-30T08:34:10.828Z,15.33
2022-11-30T08:36:40.507Z,13.85
2022-11-30T08:39:12.532Z,16.40
2022-11-30T08:41:41.416Z,15.70
2022-11-30T08:44:11.363Z,14.37
2022-11-30T08:46:51.393Z,13.00
2022-11-30T08:49:23.448Z,13.25
2022-11-30T08:54:47.231Z,15.00
2022-11-30T08:57:17.603Z,13.50
2022-11-30T08:59:48.445Z,14.13
2022-11-30T09:02:19.649Z,13.55
2022-11-30T09:04:51.354Z,12.65
2022-11-30T09:07:20.343Z,13.45
2022-11-30T09:09:49.103Z,13.30
2022-11-30T09:12:17.906Z,12.88
2022-11-30T09:14:55.886Z,13.05
2022-11-30T09:17:26.745Z,14.05
2022-11-30T09:19:56.080Z,12.85
2022-11-30T09:22:24.872Z,13.57
2022-11-30T09:24:53.489Z,14.02
2022-11-30T09:27:22.404Z,13.18
2022-11-30T09:29:52.403Z,11.93
2022-11-30T09:32:20.954Z,12.32
2022-11-30T09:34:50.835Z,13.27
2022-11-30T09:37:19.826Z,13.27
2022-11-30T09:39:48.350Z,11.90
2022-11-30T09:42:49.100Z,12.60
2022-11-30T09:45:27.703Z,12.00
2022-11-30T09:48:22.860Z,12.68
2022-11-30T09:50:53.453Z,11.55
2022-11-30T09:53:30.112Z,11.23
2022-11-30T09:56:01.395Z,11.63
2022-11-30T09:58:49.148Z,11.77
2022-11-30T10:01:22.270Z,11.60
2022-11-30T10:03:51.516Z,12.50
2022-11-30T10:06:35.806Z,11.95
2022-11-30T10:09:30.786Z,11.10
2022-11-30T10:12:10.589Z,11.45
2022-11-30T10:15:15.815Z,11.90
2022-11-30T10:17:55.480Z,10.77
2022-11-30T10:21:06.676Z,9.55
2022-11-30T10:23:59.241Z,10.47
2022-11-30T10:26:35.283Z,10.23
2022-11-30T10:29:18.349Z,10.40
2022-11-30T10:31:52.382Z,9.98
2022-11-30T10:34:27.137Z,9.93
2022-11-30T10:37:05.209Z,12.15
2022-11-30T10:39:44.251Z,11.30
2022-11-30T10:42:20.355Z,11.70
2022-11-30T10:45:01.278Z,11.15
2022-11-30T10:47:37.100Z,9.82
2022-11-30T10:50:14.829Z,9.38
2022-11-30T10:52:48.896Z,13.90
2022-11-30T10:55:22.413Z,14.40
2022-11-30T10:57:58.810Z,11.80
2022-11-30T11:00:27.447Z,11.75
2022-11-30T11:02:56.161Z,10.40
2022-11-30T11:05:30.180Z,9.68
2022-11-30T11:08:06.827Z,9.75
2022-11-30T11:10:38.535Z,26.80
2022-11-30T11:13:07.574Z,14.80
2022-11-30T11:15:36.871Z,16.17
2022-11-30T11:18:26.198Z,12.98
2022-11-30T11:21:21.455Z,9.07
2022-11-30T11:23:53.863Z,8.55
2022-11-30T11:26:28.521Z,8.50
2022-11-30T11:28:59.809Z,7.57
2022-11-30T11:31:38.619Z,8.57
2022-11-30T11:34:25.380Z,8.05
2022-11-30T11:37:08.337Z,8.48
2022-11-30T11:39:36.970Z,7.53
2022-11-30T11:42:20.636Z,8.52
2022-11-30T11:44:53.619Z,8.20
2022-11-30T11:47:30.286Z,8.27
2022-11-30T11:51:04.444Z,8.52
2022-11-30T11:53:24.965Z,7.18
2022-11-30T11:56:00.928Z,9.43
2022-11-30T11:58:45.228Z,8.57
2022-11-30T12:01:45.727Z,7.78
2022-11-30T12:04:32.792Z,8.15
2022-11-30T12:07:12.638Z,7.65
2022-11-30T12:13:19.087Z,7.68
2022-11-30T12:16:05.137Z,6.63
2022-11-30T12:18:47.498Z,8.48
2022-11-30T12:21:23.425Z,7.35
2022-11-30T12:24:15.246Z,6.88
2022-11-30T12:26:53.300Z,7.13
2022-11-30T12:29:26.461Z,7.05
2022-11-30T12:32:14.731Z,7.03
2022-11-30T12:35:18.913Z,6.75
2022-11-30T12:38:06.162Z,6.82
2022-11-30T12:40:47.564Z,6.93
2022-11-30T12:43:31.299Z,6.90
2022-11-30T12:46:12.549Z,6.47
2022-11-30T12:48:54.189Z,5.88
2022-11-30T12:51:31.047Z,5.15
2022-11-30T12:54:12.953Z,5.30
2022-11-30T12:56:49.092Z,5.15
2022-11-30T12:59:29.579Z,10.88
2022-11-30T13:02:20.467Z,13.38
2022-11-30T13:04:59.009Z,5.88
2022-11-30T13:07:35.189Z,5.70
2022-11-30T13:10:20.958Z,6.15
2022-11-30T13:12:54.950Z,5.82
2022-11-30T13:15:29.617Z,5.50
2022-11-30T13:17:59.223Z,5.85
2022-11-30T13:20:38.016Z,5.60
2022-11-30T13:23:15.290Z,6.07
2022-11-30T13:26:10.789Z,5.07
2022-11-30T13:29:02.201Z,5.07
2022-11-30T13:31:40.338Z,5.30
2022-11-30T13:34:26.109Z,5.55
2022-11-30T13:37:05.460Z,5.60
2022-11-30T13:39:49.193Z,5.60
2022-11-30T13:42:39.796Z,5.57
2022-11-30T13:45:33.702Z,6.82
2022-11-30T13:48:31.115Z,6.45
2022-11-30T13:51:00.339Z,6.18
2022-11-30T13:53:34.058Z,7.53
2022-11-30T13:56:07.761Z,6.68
2022-11-30T13:58:37.070Z,6.88
2022-11-30T14:01:27.715Z,6.15
2022-11-30T14:04:34.924Z,5.95
2022-11-30T14:07:03.588Z,6.00
2022-11-30T14:10:00.775Z,6.25
2022-11-30T14:13:01.392Z,6.20
2022-11-30T14:15:59.989Z,6.55
2022-11-30T14:18:45.708Z,5.68
2022-11-30T14:21:30.206Z,6.40
2022-11-30T14:24:04.913Z,6.15
2022-11-30T14:26:41.483Z,6.03
2022-11-30T14:29:21.936Z,5.68
2022-11-30T14:31:59.493Z,5.47
2022-11-30T14:34:33.902Z,5.38
2022-11-30T14:37:14.746Z,5.78
2022-11-30T14:39:46.703Z,5.28
2022-11-30T14:42:23.674Z,5.72
2022-11-30T14:44:52.491Z,6.28
2022-11-30T14:47:25.773Z,5.70
2022-11-30T14:49:57.386Z,5.40
2022-11-30T14:53:10.438Z,6.00
2022-11-30T14:55:49.361Z,5.80
2022-11-30T14:58:28.206Z,5.10
2022-11-30T15:00:57.453Z,5.07
2022-11-30T15:03:29.978Z,6.05
2022-11-30T15:06:01.897Z,14.02
2022-11-30T15:08:38.094Z,9.82
2022-11-30T15:11:10.953Z,8.90
2022-11-30T15:13:42.126Z,8.85
2022-11-30T15:16:20.250Z,6.82
2022-11-30T15:18:52.948Z,6.35
2022-11-30T15:21:25.636Z,7.68
2022-11-30T15:23:57.431Z,9.13
2022-11-30T15:26:33.468Z,9.50
2022-11-30T15:29:08.942Z,9.93
2022-11-30T15:31:42.922Z,9.82
2022-11-30T15:34:21.915Z,9.90
2022-11-30T15:36:50.700Z,12.30
2022-11-30T15:39:24.092Z,11.00
2022-11-30T15:41:56.547Z,11.93
2022-11-30T15:44:28.274Z,11.77
2022-11-30T15:47:00.019Z,11.27
2022-11-30T15:49:30.258Z,12.73
2022-11-30T15:52:09.181Z,13.00
2022-11-30T15:54:48.831Z,13.50
2022-11-30T15:57:18.502Z,13.80
2022-11-30T16:00:07.313Z,14.55
2022-11-30T16:02:41.439Z,15.23
2022-11-30T16:05:27.821Z,14.32
2022-11-30T16:08:00.003Z,15.05
2022-11-30T16:10:37.064Z,15.35
2022-11-30T16:13:07.397Z,15.95
2022-11-30T16:15:38.058Z,18.52
2022-11-30T16:18:21.583Z,17.65
2022-11-30T16:20:54.287Z,17.65
2022-11-30T16:23:23.408Z,17.48
2022-11-30T16:25:53.865Z,17.23
2022-11-30T16:28:23.933Z,16.88
2022-11-30T16:30:54.550Z,15.27
2022-11-30T16:33:25.910Z,14.20
2022-11-30T16:35:57.789Z,14.10
2022-11-30T16:38:27.988Z,12.80
2022-11-30T16:41:13.754Z,12.23
2022-11-30T16:43:42.870Z,13.10
2022-11-30T16:46:13.212Z,13.68
2022-11-30T16:48:42.515Z,13.45
2022-11-30T16:51:21.499Z,13.38
2022-11-30T16:53:50.476Z,13.82
2022-11-30T16:56:20.761Z,13.30
2022-11-30T16:58:49.888Z,15.18
2022-11-30T17:01:30.216Z,14.60
2022-11-30T17:04:04.729Z,15.13
2022-11-30T17:06:33.855Z,15.52
2022-11-30T17:09:02.500Z,15.55
2022-11-30T17:11:36.091Z,15.27
2022-11-30T17:14:05.166Z,16.52
2022-11-30T17:16:34.547Z,17.00
2022-11-30T17:19:03.192Z,17.27
2022-11-30T17:21:35.144Z,18.80
2022-11-30T17:24:05.397Z,18.17
2022-11-30T17:26:35.669Z,21.30
2022-11-30T17:29:04.638Z,17.30
2022-11-30T17:31:34.380Z,16.23
2022-11-30T17:34:02.974Z,15.15
2022-11-30T17:36:31.658Z,15.63
2022-11-30T17:39:00.243Z,15.40
2022-11-30T17:41:28.845Z,15.05
2022-11-30T17:43:58.938Z,14.97
2022-11-30T17:46:27.566Z,14.90
2022-11-30T17:48:57.471Z,15.30
2022-11-30T17:51:26.307Z,14.38
2022-11-30T17:53:54.896Z,15.65
2022-11-30T17:56:23.825Z,15.23
2022-11-30T17:58:52.389Z,14.30
2022-11-30T18:01:24.651Z,13.50
2022-11-30T18:03:54.607Z,14.10
2022-11-30T18:06:24.009Z,13.60
2022-11-30T18:08:53.250Z,13.52
2022-11-30T18:11:24.568Z,13.52
2022-11-30T18:13:56.258Z,12.80
2022-11-30T18:16:28.709Z,12.88
2022-11-30T18:18:59.286Z,13.50
2022-11-30T18:21:30.245Z,13.50
2022-11-30T18:23:59.865Z,12.30
2022-11-30T18:26:29.060Z,11.35
2022-11-30T18:29:00.673Z,14.73
2022-11-30T18:31:32.115Z,13.70
2022-11-30T18:34:04.533Z,14.65
2022-11-30T18:36:34.369Z,10.73
2022-11-30T18:39:06.794Z,10.07
2022-11-30T18:41:35.452Z,10.60
2022-11-30T18:44:06.390Z,10.10
2022-11-30T18:46:36.453Z,9.30
2022-11-30T18:49:06.343Z,9.98
2022-11-30T18:51:35.286Z,8.73
2022-11-30T18:54:07.771Z,9.77
2022-11-30T18:56:39.270Z,10.70
2022-11-30T18:59:11.421Z,9.38
2022-11-30T19:01:42.519Z,9.88
2022-11-30T19:04:12.667Z,8.25
2022-11-30T19:06:45.260Z,8.82
2022-11-30T19:09:16.342Z,9.10
2022-11-30T19:11:45.304Z,8.55
2022-11-30T19:14:15.335Z,8.55
2022-11-30T19:16:47.341Z,9.23
2022-11-30T19:19:16.236Z,8.57
2022-11-30T19:21:48.038Z,8.88
2022-11-30T19:24:16.907Z,8.05
2022-11-30T19:26:45.669Z,8.57
2022-11-30T19:29:14.644Z,8.93
2022-11-30T19:31:45.024Z,9.35
2022-11-30T19:34:16.750Z,9.03
2022-11-30T19:36:45.529Z,8.75
2022-11-30T19:39:14.154Z,9.43
2022-11-30T19:41:42.928Z,8.40
2022-11-30T19:44:15.711Z,8.55
2022-11-30T19:46:48.396Z,9.40
2022-11-30T19:49:17.095Z,8.60
2022-11-30T19:51:45.855Z,8.93
2022-11-30T19:54:14.417Z,8.70
2022-11-30T19:56:48.302Z,8.23
2022-11-30T19:59:17.022Z,8.83
2022-11-30T20:01:47.081Z,8.90
2022-11-30T20:04:15.790Z,8.90
2022-11-30T20:06:44.901Z,7.93
2022-11-30T20:09:13.996Z,7.47
2022-11-30T20:11:42.690Z,6.93
2022-11-30T20:14:17.978Z,7.40
2022-11-30T20:16:48.281Z,7.85
2022-11-30T20:19:17.657Z,8.18
2022-11-30T20:21:48.292Z,8.40
2022-11-30T20:24:17.138Z,7.60
2022-11-30T20:26:46.362Z,8.30
2022-11-30T20:29:18.192Z,8.18
2022-11-30T20:31:50.507Z,7.70
2022-11-30T20:34:19.477Z,8.47
2022-11-30T20:36:48.551Z,8.00
2022-11-30T20:39:17.375Z,7.43
2022-11-30T20:41:45.937Z,8.33
2022-11-30T20:44:16.943Z,7.80
2022-11-30T20:46:45.640Z,8.73
2022-11-30T20:49:21.348Z,8.13
2022-11-30T20:51:50.386Z,7.60
2022-11-30T20:54:19.990Z,8.67
2022-11-30T20:56:51.367Z,10.00
2022-11-30T20:59:23.847Z,8.93
2022-11-30T21:01:52.583Z,9.20
2022-11-30T21:04:24.530Z,8.23
2022-11-30T21:06:54.007Z,8.37
2022-11-30T21:09:23.013Z,9.43
2022-11-30T21:11:51.695Z,9.07
2022-11-30T21:14:20.508Z,8.77
2022-11-30T21:16:49.414Z,7.97
2022-11-30T21:19:18.007Z,8.55
2022-11-30T21:21:48.111Z,8.65
2022-11-30T21:24:17.111Z,8.73
2022-11-30T21:26:45.653Z,8.85
2022-11-30T21:29:19.087Z,8.77
2022-11-30T21:31:48.294Z,9.23
2022-11-30T21:34:17.318Z,8.97
2022-11-30T21:36:47.543Z,9.17
2022-11-30T21:39:16.989Z,8.90
2022-11-30T21:41:46.077Z,8.93
2022-11-30T21:44:17.250Z,9.17
2022-11-30T21:46:47.096Z,9.35
2022-11-30T21:49:16.881Z,9.40
2022-11-30T21:51:45.564Z,8.20
2022-11-30T21:54:15.580Z,8.87
2022-11-30T21:56:46.018Z,9.13
2022-11-30T21:59:15.867Z,9.57
2022-11-30T22:01:46.306Z,9.52
2022-11-30T22:04:16.911Z,8.50
2022-11-30T22:06:46.259Z,9.03
2022-11-30T22:09:17.933Z,8.88
2022-11-30T22:11:47.623Z,8.70
2022-11-30T22:14:18.101Z,9.10
2022-11-30T22:16:46.822Z,8.47
2022-11-30T22:19:16.226Z,8.63
2022-11-30T22:21:49.999Z,11.53
2022-11-30T22:24:20.528Z,12.35
2022-11-30T22:26:50.113Z,12.13
2022-11-30T22:29:22.685Z,14.07
2022-11-30T22:31:54.396Z,14.95
2022-11-30T22:34:23.168Z,14.70
2022-11-30T22:36:51.720Z,15.27
2022-11-30T22:39:22.774Z,15.55
2022-11-30T22:41:55.631Z,14.50
2022-11-30T22:44:26.646Z,14.07
2022-11-30T22:46:55.334Z,13.07
2022-11-30T22:49:24.427Z,12.40
2022-11-30T22:51:53.392Z,12.90
2022-11-30T22:54:23.545Z,13.67
2022-11-30T22:56:52.782Z,14.52
2022-11-30T22:59:21.322Z,13.88
2022-11-30T23:01:51.616Z,14.90
2022-11-30T23:04:23.073Z,14.98
2022-11-30T23:06:52.931Z,14.85
2022-11-30T23:09:24.677Z,13.95
2022-11-30T23:11:53.748Z,16.60
2022-11-30T23:14:22.518Z,18.58
2022-11-30T23:16:51.446Z,24.05
2022-11-30T23:19:20.130Z,23.37
2022-11-30T23:21:50.196Z,23.83
2022-11-30T23:24:22.217Z,21.03
2022-11-30T23:26:51.706Z,21.73
2022-11-30T23:29:20.464Z,20.93
2022-11-30T23:31:49.723Z,19.27
2022-11-30T23:34:21.256Z,16.17
2022-11-30T23:36:50.282Z,12.80
2022-11-30T23:39:20.816Z,15.53
2022-11-30T23:41:51.141Z,16.80
2022-11-30T23:44:19.662Z,22.43
2022-11-30T23:46:48.243Z,24.57
2022-11-30T23:49:17.033Z,24.70
2022-11-30T23:51:45.584Z,26.03
2022-11-30T23:54:14.090Z,25.83
2022-11-30T23:56:42.734Z,25.47
2022-11-30T23:59:12.688Z,26.17
